Airfield :
LOGIN :

Register | Disclaimer

   EN    FR    IT 

 










Legend :    VFR   Marginal VFR   IFR   Intensive IFR   Very Intensive IFR
Visi :
Ceiling :
>= 8 km
>= 3000ft
5 to 8 km
1000 to 3000 ft
1500m to 5 km
500 to 1000 ft
800 to 1500m
200 to 500 ft
< 800m
< 200 ft
Symbols :   Thunderstorms  Fog  Heavy snow  Heavy precipitations  Wind > 20 kt
SIGMETs :     Misc.  Thunderstorms  Icing  Turbulence  Mountain Waves  Volcanic Ashes







- Airport Elevation : 1079 ft


ETIK - Illesheim Air Base

CURRENT METAR :
  • 122156Z AUTO 00000KT 9999 BKN047 M01/M01 A3017 RMK AO2 SLP237 T10091009 $

EXPIRED METARs :
  • 122056Z AUTO 00000KT 9999 OVC040 M02/M02 A3018 RMK AO2 SLP240 T10161016 55002 $
  • 121956Z AUTO 00000KT 9999 FEW043 M02/M02 A3018 RMK AO2 SLP240 T10191019 $

TAF TAF ETIK
Valid from the 12 at 22:00 until the 14 at 04:00 UTC


122201Z 1222/1404 05009KT 9999 SCT015 BKN050 QNH3008INS
BECMG 1304/1305 06009KT 9999 SCT010 QNH3003INS
BECMG 1312/1313 08010G15KT 9999 BKN045 QNH2995INS
BECMG 1401/1402 06012KT 9999 SCT020 QNH2996INS TX01/1313Z TNM03/1306Z
No reported NOTAMs for that airfield.



MET'MAP, your aeronautical weather chart ! - Copyright ORBIFLY December 2007 - Disclaimer

ORBIFLY MET'MAP TEAM :

Programming & Development : Alexandra Zaïnal
Concept & Development : Baudouin d'Aumeries
Co-Development & Prog : Marc-Olivier Méhu
Technical & hardware support : Manuel Goepfert

Contact : metmap@orbifly.com




SOURCES & CREDITS :

   NOAA